createdAt,value
2018-03-15T00:00:37.427Z,99868.89
2018-03-15T00:03:11.554Z,99862.53
2018-03-15T00:05:40.719Z,99873.19
2018-03-15T00:08:09.540Z,99866.08
2018-03-15T00:10:38.717Z,99866.58
2018-03-15T00:13:07.852Z,99863.52
2018-03-15T00:15:38.508Z,99863.02
2018-03-15T00:18:09.061Z,99857.91
2018-03-15T00:20:39.430Z,99865.30
2018-03-15T00:23:10.041Z,99868.78
2018-03-15T00:25:40.827Z,99866.27
2018-03-15T00:28:11.772Z,99869.50
2018-03-15T00:30:43.108Z,99865.77
2018-03-15T00:33:13.732Z,99857.19
2018-03-15T00:35:45.401Z,99858.15
2018-03-15T00:38:15.973Z,99854.20
2018-03-15T00:40:46.358Z,99862.09
2018-03-15T00:43:16.993Z,99861.13
2018-03-15T00:45:47.821Z,99864.72
2018-03-15T00:48:19.368Z,99864.11
2018-03-15T00:50:50.033Z,99858.00
2018-03-15T00:53:20.698Z,99854.48
2018-03-15T00:55:52.028Z,99852.32
2018-03-15T00:58:22.724Z,99846.67
2018-03-15T01:00:54.432Z,99844.44
2018-03-15T01:03:25.048Z,99846.17
2018-03-15T01:05:55.382Z,99846.17
2018-03-15T01:08:26.343Z,99848.45
2018-03-15T01:10:57.012Z,99841.87
2018-03-15T01:13:27.340Z,99841.81
2018-03-15T01:15:58.005Z,99838.55
2018-03-15T01:18:28.761Z,99811.78
2018-03-15T01:21:00.158Z,99845.73
2018-03-15T01:23:30.726Z,99837.42
2018-03-15T01:26:02.095Z,99836.95
2018-03-15T01:28:32.665Z,99831.70
2018-03-15T01:31:04.109Z,99832.59
2018-03-15T01:33:34.668Z,99828.79
2018-03-15T01:36:06.071Z,99830.64
2018-03-15T01:38:36.948Z,99825.81
2018-03-15T01:41:07.747Z,99824.97
2018-03-15T01:43:39.031Z,99825.64
2018-03-15T01:46:09.715Z,99793.99
2018-03-15T01:48:40.970Z,99826.72
2018-03-15T01:51:11.733Z,99819.69
2018-03-15T01:53:43.714Z,99823.20
2018-03-15T01:56:14.485Z,99819.14
2018-03-15T01:58:45.008Z,99818.80
2018-03-15T02:01:15.866Z,99814.43
2018-03-15T02:03:46.730Z,99814.01
2018-03-15T02:06:18.224Z,99817.24
2018-03-15T02:08:48.838Z,99814.55
2018-03-15T02:11:20.236Z,99814.27
2018-03-15T02:13:50.841Z,99811.98
2018-03-15T02:16:21.838Z,99808.12
2018-03-15T02:18:52.300Z,99814.27
2018-03-15T02:21:22.951Z,99809.97
2018-03-15T02:23:53.752Z,99796.91
2018-03-15T02:26:25.201Z,99798.22
2018-03-15T02:28:55.802Z,99794.46
2018-03-15T02:31:26.460Z,99803.59
2018-03-15T02:33:57.108Z,99799.18
2018-03-15T02:36:27.837Z,99794.00
2018-03-15T02:38:58.448Z,99796.98
2018-03-15T02:41:29.139Z,99795.35
2018-03-15T02:43:59.878Z,99795.42
2018-03-15T02:46:30.914Z,99804.90
2018-03-15T02:49:01.712Z,99797.94
2018-03-15T02:51:33.109Z,99798.94
2018-03-15T02:54:03.718Z,99801.10
2018-03-15T02:56:35.174Z,99797.63
2018-03-15T02:59:05.812Z,99799.51
2018-03-15T03:01:36.369Z,99800.40
2018-03-15T03:04:06.954Z,99780.95
2018-03-15T03:06:37.799Z,99794.26
2018-03-15T03:09:08.733Z,99796.45
2018-03-15T03:11:40.092Z,99795.69
2018-03-15T03:14:10.302Z,99791.20
2018-03-15T03:16:41.075Z,99793.94
2018-03-15T03:19:11.740Z,99794.02
2018-03-15T03:21:43.221Z,99788.83
2018-03-15T03:24:13.753Z,99784.54
2018-03-15T03:26:44.310Z,99791.11
2018-03-15T03:29:14.862Z,99783.84
2018-03-15T03:31:45.522Z,99779.02
2018-03-15T03:34:16.081Z,99788.48
2018-03-15T03:36:46.865Z,99790.27
2018-03-15T03:39:17.779Z,99784.19
2018-03-15T03:41:48.389Z,99783.41
2018-03-15T03:44:19.159Z,99782.10
2018-03-15T03:46:50.519Z,99786.53
2018-03-15T03:49:21.171Z,99786.38
2018-03-15T03:51:51.839Z,99784.84
2018-03-15T03:54:22.362Z,99786.16
2018-03-15T03:56:53.024Z,99778.42
2018-03-15T03:59:23.763Z,99793.33
2018-03-15T04:01:55.138Z,99786.84
2018-03-15T04:04:25.782Z,99779.63
2018-03-15T04:06:57.114Z,99782.42
2018-03-15T04:09:27.773Z,99789.39
2018-03-15T04:11:57.743Z,99786.02
2018-03-15T04:14:28.368Z,99784.63
2018-03-15T04:16:59.312Z,99781.72
2018-03-15T04:19:30.151Z,99784.70
2018-03-15T04:22:01.074Z,99784.28
2018-03-15T04:24:32.303Z,99779.98
2018-03-15T04:27:03.228Z,99783.58
2018-03-15T04:29:34.202Z,99775.34
2018-03-15T04:32:05.702Z,99779.63
2018-03-15T04:34:36.290Z,99777.52
2018-03-15T04:37:07.133Z,99787.48
2018-03-15T04:39:38.038Z,99786.03
2018-03-15T04:42:09.389Z,99777.73
2018-03-15T04:44:40.370Z,99776.06
2018-03-15T04:47:11.412Z,99783.12
2018-03-15T04:49:42.449Z,99760.23
2018-03-15T04:52:13.369Z,99785.40
2018-03-15T04:54:44.259Z,99794.59
2018-03-15T04:57:15.232Z,99768.26
2018-03-15T04:59:46.100Z,99795.63
2018-03-15T05:02:17.789Z,99791.33
2018-03-15T05:04:48.726Z,99783.61
2018-03-15T05:07:20.115Z,99781.30
2018-03-15T05:09:50.946Z,99783.15
2018-03-15T05:12:22.256Z,99790.53
2018-03-15T05:14:52.888Z,99779.33
2018-03-15T05:17:23.752Z,99784.11
2018-03-15T05:19:55.024Z,99785.50
2018-03-15T05:22:25.807Z,99785.78
2018-03-15T05:24:56.750Z,99783.77
2018-03-15T05:27:28.210Z,99780.68
2018-03-15T05:29:58.805Z,99779.55
2018-03-15T05:32:37.643Z,99779.90
2018-03-15T05:35:07.067Z,99780.86
2018-03-15T05:37:36.320Z,99787.50
2018-03-15T05:40:05.514Z,99786.61
2018-03-15T05:42:34.610Z,99791.79
2018-03-15T05:45:04.471Z,99786.11
2018-03-15T05:47:34.367Z,99791.72
2018-03-15T05:50:04.724Z,99801.08
2018-03-15T05:52:36.041Z,99792.25
2018-03-15T05:55:06.801Z,99805.73
2018-03-15T05:57:37.762Z,99795.80
2018-03-15T06:00:08.776Z,99808.61
2018-03-15T06:02:40.181Z,99806.66
2018-03-15T06:05:10.870Z,99814.86
2018-03-15T06:07:41.717Z,99816.45
2018-03-15T06:10:13.189Z,99820.32
2018-03-15T06:12:43.744Z,99820.57
2018-03-15T06:15:14.767Z,99826.00
2018-03-15T06:17:45.693Z,99831.25
2018-03-15T06:20:16.736Z,99834.55
2018-03-15T06:22:47.337Z,99836.32
2018-03-15T06:25:18.048Z,99834.30
2018-03-15T06:27:48.784Z,99836.98
2018-03-15T06:30:19.776Z,99831.84
2018-03-15T06:32:51.004Z,99830.92
2018-03-15T06:35:21.752Z,99834.05
2018-03-15T06:37:52.230Z,99833.98
2018-03-15T06:40:22.884Z,99824.83
2018-03-15T06:42:53.798Z,99835.11
2018-03-15T06:45:24.704Z,99837.20
2018-03-15T06:47:55.313Z,99831.24
2018-03-15T06:50:25.894Z,99831.25
2018-03-15T06:52:56.786Z,99835.68
2018-03-15T06:55:27.688Z,99838.41
2018-03-15T06:57:59.189Z,99843.16
2018-03-15T07:00:29.714Z,99849.55
2018-03-15T07:03:00.336Z,99850.79
2018-03-15T07:05:30.908Z,99851.71
2018-03-15T07:08:01.749Z,99854.70
2018-03-15T07:10:33.068Z,99852.89
2018-03-15T07:13:03.882Z,99854.05
2018-03-15T07:15:34.730Z,99849.98
2018-03-15T07:18:05.728Z,99848.91
2018-03-15T07:20:36.654Z,99853.23
2018-03-15T07:23:07.293Z,99859.45
2018-03-15T07:25:37.845Z,99859.38
2018-03-15T07:28:08.874Z,99857.56
2018-03-15T07:30:39.790Z,99865.80
2018-03-15T07:33:10.764Z,99869.38
2018-03-15T07:35:41.260Z,99868.53
2018-03-15T07:38:12.007Z,99869.02
2018-03-15T07:40:42.717Z,99861.00
2018-03-15T07:43:14.125Z,99866.51
2018-03-15T07:45:44.768Z,99861.89
2018-03-15T07:48:15.777Z,99868.81
2018-03-15T07:50:46.309Z,99861.97
2018-03-15T07:53:16.946Z,99870.27
2018-03-15T07:55:46.685Z,99861.39
2018-03-15T07:58:17.800Z,99870.02
2018-03-15T08:00:48.672Z,99875.86
2018-03-15T08:03:20.110Z,99875.11
2018-03-15T08:05:50.672Z,99882.08
2018-03-15T08:08:22.055Z,99875.30
2018-03-15T08:10:52.392Z,99880.72
2018-03-15T08:13:22.986Z,99879.80
2018-03-15T08:15:54.222Z,99879.83
2018-03-15T08:18:24.845Z,99879.32
2018-03-15T08:20:55.333Z,99884.11
2018-03-15T08:23:27.089Z,99880.89
2018-03-15T08:25:57.700Z,99876.66
2018-03-15T08:28:29.055Z,99874.95
2018-03-15T08:30:59.664Z,99876.20
2018-03-15T08:33:31.252Z,99886.10
2018-03-15T08:36:02.085Z,99881.58
2018-03-15T08:38:33.058Z,99881.58
2018-03-15T08:41:03.788Z,99877.34
2018-03-15T08:43:35.295Z,99873.86
2018-03-15T08:46:05.853Z,99873.06
2018-03-15T08:48:36.748Z,99875.55
2018-03-15T08:51:08.024Z,99869.41
2018-03-15T08:53:38.732Z,99866.20
2018-03-15T08:56:09.667Z,99869.42
2018-03-15T08:58:41.102Z,99862.99
2018-03-15T09:01:11.352Z,99872.71
2018-03-15T09:03:42.000Z,99868.48
2018-03-15T09:06:12.822Z,99873.30
2018-03-15T09:08:43.879Z,99873.38
2018-03-15T09:11:14.764Z,99870.50
2018-03-15T09:13:46.097Z,99864.78
2018-03-15T09:16:16.309Z,99859.90
2018-03-15T09:18:46.912Z,99857.10
2018-03-15T09:21:17.705Z,99859.55
2018-03-15T09:23:49.117Z,99864.30
2018-03-15T09:26:20.211Z,99857.78
2018-03-15T09:28:50.912Z,99856.19
2018-03-15T09:31:21.437Z,99851.75
2018-03-15T09:33:52.125Z,99853.86
2018-03-15T09:36:22.888Z,99848.52
2018-03-15T09:38:53.862Z,99848.45
2018-03-15T09:41:24.655Z,99845.66
2018-03-15T09:43:55.252Z,99843.90
2018-03-15T09:46:25.826Z,99838.53
2018-03-15T09:48:56.884Z,99842.42
2018-03-15T09:51:27.716Z,99839.67
2018-03-15T09:53:59.200Z,99838.45
2018-03-15T09:56:30.076Z,99835.67
2018-03-15T09:59:00.380Z,99833.94
2018-03-15T10:01:30.925Z,99829.43
2018-03-15T10:04:01.420Z,99823.56
2018-03-15T10:06:32.013Z,99822.97
2018-03-15T10:09:02.922Z,99821.36
2018-03-15T10:11:34.637Z,99822.27
2018-03-15T10:14:05.232Z,99831.84
2018-03-15T10:16:35.812Z,99824.83
2018-03-15T10:19:07.560Z,99821.76
2018-03-15T10:21:38.068Z,99811.33
2018-03-15T10:24:08.788Z,99810.89
2018-03-15T10:26:39.764Z,99812.63
2018-03-15T10:29:11.406Z,99801.06
2018-03-15T10:31:41.836Z,99801.64
2018-03-15T10:34:12.351Z,99805.80
2018-03-15T10:36:43.080Z,99807.63
2018-03-15T10:39:13.260Z,99801.07
2018-03-15T10:41:43.842Z,99799.83
2018-03-15T10:44:14.756Z,99793.95
2018-03-15T10:46:46.061Z,99792.69
2018-03-15T10:49:16.853Z,99791.84
2018-03-15T10:51:47.431Z,99786.13
2018-03-15T10:54:18.125Z,99788.10
2018-03-15T10:56:48.886Z,99784.62
2018-03-15T10:59:19.784Z,99783.89
2018-03-15T11:01:50.549Z,99781.27
2018-03-15T11:07:30.544Z,99777.50
2018-03-15T11:09:59.672Z,99782.65
2018-03-15T11:12:28.387Z,99782.62
2018-03-15T11:14:57.350Z,99779.59
2018-03-15T11:17:26.367Z,99772.89
2018-03-15T11:19:55.396Z,99771.84
2018-03-15T11:22:24.288Z,99765.53
2018-03-15T11:24:53.403Z,99763.24
2018-03-15T11:27:22.313Z,99765.48
2018-03-15T11:29:51.321Z,99764.14
2018-03-15T11:32:20.508Z,99756.06
2018-03-15T11:34:49.552Z,99756.33
2018-03-15T11:37:18.550Z,99723.91
2018-03-15T11:39:47.610Z,99749.13
2018-03-15T11:42:20.745Z,99747.05
2018-03-15T11:44:49.933Z,99747.67
2018-03-15T11:47:18.817Z,99743.09
2018-03-15T11:49:48.210Z,99741.01
2018-03-15T11:52:17.453Z,99750.14
2018-03-15T11:54:47.089Z,99736.08
2018-03-15T11:57:16.212Z,99738.72
2018-03-15T11:59:45.977Z,99746.41
2018-03-15T12:02:15.144Z,99727.82
2018-03-15T12:04:44.469Z,99726.85
2018-03-15T12:07:14.368Z,99722.63
2018-03-15T12:09:44.949Z,99713.96
2018-03-15T12:12:15.803Z,99713.27
2018-03-15T12:14:46.756Z,99710.69
2018-03-15T12:17:17.788Z,99711.59
2018-03-15T12:19:48.769Z,99708.95
2018-03-15T12:22:20.119Z,99704.70
2018-03-15T12:24:50.723Z,99699.72
2018-03-15T12:27:21.749Z,99705.59
2018-03-15T12:29:53.088Z,99699.77
2018-03-15T12:32:23.901Z,99699.75
2018-03-15T12:34:54.749Z,99698.89
2018-03-15T12:37:25.236Z,99693.58
2018-03-15T12:39:55.730Z,99687.46
2018-03-15T12:42:27.124Z,99691.52
2018-03-15T12:44:57.747Z,99691.14
2018-03-15T12:47:29.114Z,99684.94
2018-03-15T12:49:59.395Z,99684.36
2018-03-15T12:52:30.074Z,99682.30
2018-03-15T12:55:00.709Z,99679.02
2018-03-15T12:57:31.368Z,99684.98
2018-03-15T13:00:01.919Z,99674.27
2018-03-15T13:02:32.341Z,99676.09
2018-03-15T13:05:02.898Z,99671.06
2018-03-15T13:07:33.745Z,99661.98
2018-03-15T13:10:04.796Z,99666.91
2018-03-15T13:12:35.740Z,99660.38
2018-03-15T13:15:06.735Z,99659.88
2018-03-15T13:17:37.370Z,99657.41
2018-03-15T13:20:07.993Z,99658.44
2018-03-15T13:22:38.821Z,99645.13
2018-03-15T13:25:09.661Z,99645.68
2018-03-15T13:27:41.116Z,99644.88
2018-03-15T13:30:11.367Z,99645.81
2018-03-15T13:32:42.048Z,99636.45
2018-03-15T13:35:12.692Z,99637.17
2018-03-15T13:37:44.040Z,99631.08
2018-03-15T13:40:14.693Z,99628.88
2018-03-15T13:42:45.240Z,99629.85
2018-03-15T13:45:15.860Z,99626.66
2018-03-15T13:47:46.415Z,99611.85
2018-03-15T13:50:17.047Z,99619.64
2018-03-15T13:52:47.773Z,99616.92
2018-03-15T13:55:18.632Z,99614.15
2018-03-15T13:57:50.014Z,99606.89
2018-03-15T14:00:20.732Z,99607.52
2018-03-15T14:02:52.121Z,99602.84
2018-03-15T14:05:22.745Z,99612.33
2018-03-15T14:07:54.436Z,99597.73
2018-03-15T14:10:25.716Z,99606.76
2018-03-15T14:12:56.314Z,99599.36
2018-03-15T14:15:26.058Z,99595.73
2018-03-15T14:17:56.732Z,99593.57
2018-03-15T14:20:27.657Z,99584.72
2018-03-15T14:22:58.088Z,99585.06
2018-03-15T14:25:28.749Z,99578.68
2018-03-15T14:28:00.055Z,99575.02
2018-03-15T14:30:30.733Z,99575.70
2018-03-15T14:33:02.090Z,99572.17
2018-03-15T14:35:32.765Z,99571.70
2018-03-15T14:38:04.124Z,99569.88
2018-03-15T14:40:34.784Z,99566.81
2018-03-15T14:43:05.800Z,99565.41
2018-03-15T14:45:36.774Z,99555.50
2018-03-15T14:48:07.736Z,99558.30
2018-03-15T14:50:38.224Z,99552.61
2018-03-15T14:53:08.880Z,99554.39
2018-03-15T14:55:39.758Z,99545.59
2018-03-15T14:58:11.376Z,99556.35
2018-03-15T15:00:41.965Z,99556.73
2018-03-15T15:03:12.789Z,99561.03
2018-03-15T15:05:43.680Z,99548.91
2018-03-15T15:08:15.080Z,99555.78
2018-03-15T15:10:45.376Z,99560.13
2018-03-15T15:13:16.013Z,99556.83
2018-03-15T15:15:46.816Z,99558.86
2018-03-15T15:18:18.155Z,99549.11
2018-03-15T15:20:48.784Z,99544.49
2018-03-15T15:23:20.497Z,99549.81
2018-03-15T15:25:51.120Z,99551.16
2018-03-15T15:28:21.860Z,99545.06
2018-03-15T15:30:52.694Z,99550.23
2018-03-15T15:33:24.119Z,99552.19
2018-03-15T15:35:54.732Z,99553.00
2018-03-15T15:38:26.145Z,99560.30
2018-03-15T15:40:56.680Z,99563.49
2018-03-15T15:43:29.027Z,99552.61
2018-03-15T15:48:39.430Z,99556.59
2018-03-15T15:51:08.551Z,99562.57
2018-03-15T15:53:37.660Z,99571.81
2018-03-15T15:56:07.154Z,99571.20
2018-03-15T15:58:36.274Z,99577.58
2018-03-15T16:01:05.391Z,99570.71
2018-03-15T16:03:34.602Z,99573.05
2018-03-15T16:06:04.320Z,99576.34
2018-03-15T16:08:35.127Z,99587.77
2018-03-15T16:11:04.998Z,99580.11
2018-03-15T16:13:35.856Z,99575.23
2018-03-15T16:16:06.648Z,99578.34
2018-03-15T16:18:38.068Z,99577.80
2018-03-15T16:21:08.698Z,99574.77
2018-03-15T16:23:40.100Z,99574.71
2018-03-15T16:26:10.705Z,99570.59
2018-03-15T16:28:42.098Z,99573.97
2018-03-15T16:31:12.267Z,99570.02
2018-03-15T16:33:42.902Z,99574.24
2018-03-15T16:36:13.820Z,99574.27
2018-03-15T16:38:45.204Z,99583.08
2018-03-15T16:41:15.791Z,99578.55
2018-03-15T16:43:47.158Z,99579.88
2018-03-15T16:46:17.344Z,99582.86
2018-03-15T16:48:47.969Z,99592.15
2018-03-15T16:51:18.757Z,99593.38
2018-03-15T16:53:49.745Z,99601.98
2018-03-15T16:56:21.002Z,99604.76
2018-03-15T16:58:51.849Z,99608.44
2018-03-15T17:01:23.433Z,99611.40
2018-03-15T17:03:54.758Z,99616.38
2018-03-15T17:06:25.266Z,99617.36
2018-03-15T17:08:55.841Z,99620.50
2018-03-15T17:11:26.643Z,99620.33
2018-03-15T17:13:57.235Z,99636.55
2018-03-15T17:16:27.879Z,99629.20
2018-03-15T17:18:58.384Z,99642.71
2018-03-15T17:21:28.944Z,99638.02
2018-03-15T17:23:59.840Z,99644.80
2018-03-15T17:26:30.813Z,99645.98
2018-03-15T17:29:01.988Z,99642.84
2018-03-15T17:31:32.542Z,99642.37
2018-03-15T17:34:03.243Z,99639.66
2018-03-15T17:36:33.985Z,99634.68
2018-03-15T17:39:04.320Z,99637.05
2018-03-15T17:41:36.050Z,99632.45
2018-03-15T17:44:06.865Z,99630.53
2018-03-15T17:46:37.707Z,99635.25
2018-03-15T17:49:09.273Z,99638.50
2018-03-15T17:51:39.942Z,99627.34
2018-03-15T17:54:10.647Z,99630.73
2018-03-15T17:56:41.191Z,99628.55
2018-03-15T17:59:11.875Z,99627.59
2018-03-15T18:01:42.997Z,99638.03
2018-03-15T18:04:14.050Z,99640.93
2018-03-15T18:06:44.877Z,99637.69
2018-03-15T18:09:15.474Z,99633.55
2018-03-15T18:11:46.165Z,99613.09
2018-03-15T18:14:17.016Z,99632.16
2018-03-15T18:16:47.741Z,99637.80
2018-03-15T18:19:19.111Z,99639.03
2018-03-15T18:21:50.348Z,99639.81
2018-03-15T18:24:21.145Z,99639.62
2018-03-15T18:26:51.656Z,99633.36
2018-03-15T18:29:22.199Z,99638.15
2018-03-15T18:31:52.849Z,99637.11
2018-03-15T18:34:23.549Z,99630.45
2018-03-15T18:36:53.596Z,99634.32
2018-03-15T18:39:24.359Z,99636.02
2018-03-15T18:41:55.321Z,99628.20
2018-03-15T18:44:26.374Z,99625.52
2018-03-15T18:46:57.045Z,99620.83
2018-03-15T18:49:28.043Z,99622.11
2018-03-15T18:51:59.068Z,99619.97
2018-03-15T18:54:29.637Z,99624.45
2018-03-15T18:57:00.341Z,99630.38
2018-03-15T18:59:31.088Z,99626.75
2018-03-15T19:02:01.901Z,99631.42
2018-03-15T19:04:33.116Z,99631.52
2018-03-15T19:07:03.480Z,99631.84
2018-03-15T19:09:34.573Z,99635.59
2018-03-15T19:12:05.207Z,99634.01
2018-03-15T19:14:35.969Z,99628.69
2018-03-15T19:17:07.191Z,99632.99
2018-03-15T19:19:37.881Z,99639.05
2018-03-15T19:22:08.466Z,99632.48
2018-03-15T19:24:39.236Z,99640.63
2018-03-15T19:27:10.200Z,99634.76
2018-03-15T19:29:41.069Z,99638.33
2018-03-15T19:32:12.784Z,99640.25
2018-03-15T19:34:43.445Z,99642.70
2018-03-15T19:37:14.221Z,99639.66
2018-03-15T19:39:45.070Z,99631.93
2018-03-15T19:42:15.847Z,99633.19
2018-03-15T19:44:46.984Z,99625.00
2018-03-15T19:47:17.850Z,99624.42
2018-03-15T19:49:50.620Z,99615.25
2018-03-15T19:52:21.504Z,99611.80
2018-03-15T19:54:58.343Z,99613.41
2018-03-15T19:57:27.589Z,99611.17
2018-03-15T19:59:56.908Z,99612.21
2018-03-15T20:02:26.253Z,99607.34
2018-03-15T20:04:55.581Z,99607.51
2018-03-15T20:07:26.153Z,99603.34
2018-03-15T20:09:56.825Z,99610.73
2018-03-15T20:12:27.484Z,99604.63
2018-03-15T20:14:58.156Z,99610.22
2018-03-15T20:17:28.935Z,99607.06
2018-03-15T20:19:59.795Z,99604.13
2018-03-15T20:22:36.194Z,99578.66
2018-03-15T20:25:05.442Z,99602.27
2018-03-15T20:27:40.350Z,99596.89
2018-03-15T20:30:09.583Z,99599.12
2018-03-15T20:32:44.541Z,99588.59
2018-03-15T20:35:13.880Z,99587.89
2018-03-15T20:37:43.188Z,99583.27
2018-03-15T20:40:17.777Z,99587.20
2018-03-15T20:42:47.116Z,99582.21
2018-03-15T20:45:21.767Z,99580.13
2018-03-15T20:47:56.523Z,99578.62
2018-03-15T20:50:25.509Z,99578.55
2018-03-15T20:52:54.865Z,99577.59
2018-03-15T20:55:24.246Z,99567.33
2018-03-15T20:57:53.548Z,99570.83
2018-03-15T21:00:22.879Z,99572.25
2018-03-15T21:02:52.119Z,99547.97
2018-03-15T21:05:21.417Z,99571.38
2018-03-15T21:07:50.695Z,99575.19
2018-03-15T21:10:20.234Z,99566.30
2018-03-15T21:12:49.506Z,99564.45
2018-03-15T21:15:19.429Z,99568.19
2018-03-15T21:17:50.216Z,99567.92
2018-03-15T21:20:21.090Z,99559.95
2018-03-15T21:22:53.322Z,99562.61
2018-03-15T21:25:23.200Z,99563.30
2018-03-15T21:27:53.903Z,99560.79
2018-03-15T21:30:24.416Z,99559.17
2018-03-15T21:32:55.306Z,99552.55
2018-03-15T21:35:26.047Z,99544.59
2018-03-15T21:37:56.846Z,99543.03
2018-03-15T21:40:27.821Z,99538.80
2018-03-15T21:42:58.822Z,99548.47
2018-03-15T21:45:29.838Z,99546.45
2018-03-15T21:48:00.759Z,99545.27
2018-03-15T21:50:32.292Z,99538.91
2018-03-15T21:53:03.036Z,99538.81
2018-03-15T21:55:33.796Z,99551.69
2018-03-15T21:58:07.727Z,99537.76
2018-03-15T22:00:36.900Z,99540.50
2018-03-15T22:03:06.179Z,99539.06
2018-03-15T22:05:35.364Z,99543.00
2018-03-15T22:08:07.167Z,99547.99
2018-03-15T22:10:37.970Z,99550.69
2018-03-15T22:13:08.836Z,99545.97
2018-03-15T22:15:39.560Z,99557.85
2018-03-15T22:18:10.288Z,99551.41
2018-03-15T22:20:41.913Z,99556.63
2018-03-15T22:23:12.573Z,99550.70
2018-03-15T22:25:43.348Z,99544.64
2018-03-15T22:28:13.133Z,99538.30
2018-03-15T22:30:42.781Z,99529.43
2018-03-15T22:33:14.504Z,99519.73
2018-03-15T22:35:45.408Z,99514.39
2018-03-15T22:38:17.206Z,99509.50
2018-03-15T22:40:47.471Z,99500.32
2018-03-15T22:43:19.112Z,99499.44
2018-03-15T22:45:49.826Z,99509.97
2018-03-15T22:48:20.910Z,99512.22
2018-03-15T22:50:52.607Z,99512.84
2018-03-15T22:53:22.218Z,99510.72
2018-03-15T22:55:51.701Z,99509.34
2018-03-15T22:58:22.092Z,99512.82
2018-03-15T23:00:52.906Z,99509.68
2018-03-15T23:03:24.427Z,99519.26
2018-03-15T23:05:55.436Z,99512.81
2018-03-15T23:08:26.368Z,99505.66
2018-03-15T23:10:57.356Z,99499.10
2018-03-15T23:13:28.361Z,99490.23
2018-03-15T23:15:59.328Z,99481.31
2018-03-15T23:18:30.260Z,99471.34
2018-03-15T23:21:01.240Z,99472.59
2018-03-15T23:23:32.167Z,99463.22
2018-03-15T23:26:02.865Z,99458.18
2018-03-15T23:28:34.352Z,99455.61
2018-03-15T23:31:07.892Z,99451.17
2018-03-15T23:33:38.232Z,99452.90
2018-03-15T23:36:08.868Z,99453.20
2018-03-15T23:38:42.240Z,99456.33
2018-03-15T23:41:13.972Z,99455.18
2018-03-15T23:43:44.848Z,99458.22
2018-03-15T23:46:14.240Z,99472.72
2018-03-15T23:48:43.521Z,99479.67
2018-03-15T23:51:13.136Z,99475.13
2018-03-15T23:53:42.912Z,99477.59
2018-03-15T23:56:13.886Z,99481.52
2018-03-15T23:58:45.842Z,99486.30
